sensor_id;sensor_type;location;lat;lon;timestamp;pressure;altitude;pressure_sealevel;temperature;humidity
69842;BME280;57138;51.326;-0.068;2023-03-12T00:00:35;98854.78;;;4.47;100.00
69842;BME280;57138;51.326;-0.068;2023-03-12T00:03:02;98854.06;;;4.53;100.00
69842;BME280;57138;51.326;-0.068;2023-03-12T00:05:28;98857.38;;;4.55;100.00
69842;BME280;57138;51.326;-0.068;2023-03-12T00:07:53;98799.13;;;4.25;100.00
69842;BME280;57138;51.326;-0.068;2023-03-12T00:10:19;98869.78;;;4.70;100.00
69842;BME280;57138;51.326;-0.068;2023-03-12T00:12:45;98854.63;;;4.63;100.00
69842;BME280;57138;51.326;-0.068;2023-03-12T00:15:10;98862.44;;;4.72;100.00
69842;BME280;57138;51.326;-0.068;2023-03-12T00:17:36;98847.66;;;4.62;100.00
69842;BME280;57138;51.326;-0.068;2023-03-12T00:20:02;98862.91;;;4.75;100.00
69842;BME280;57138;51.326;-0.068;2023-03-12T00:22:29;98850.88;;;4.73;100.00
69842;BME280;57138;51.326;-0.068;2023-03-12T00:24:55;98863.00;;;4.82;100.00
69842;BME280;57138;51.326;-0.068;2023-03-12T00:27:22;98854.88;;;4.83;100.00
69842;BME280;57138;51.326;-0.068;2023-03-12T00:29:48;98855.31;;;4.87;100.00
69842;BME280;57138;51.326;-0.068;2023-03-12T00:32:14;98830.69;;;4.72;100.00
69842;BME280;57138;51.326;-0.068;2023-03-12T00:34:39;98858.22;;;4.92;100.00
69842;BME280;57138;51.326;-0.068;2023-03-12T00:37:05;98822.19;;;4.76;100.00
69842;BME280;57138;51.326;-0.068;2023-03-12T00:39:32;98827.91;;;4.80;100.00
69842;BME280;57138;51.326;-0.068;2023-03-12T00:41:57;98834.50;;;4.84;100.00
69842;BME280;57138;51.326;-0.068;2023-03-12T00:44:23;98827.19;;;4.86;100.00
69842;BME280;57138;51.326;-0.068;2023-03-12T00:46:48;98859.75;;;5.01;100.00
69842;BME280;57138;51.326;-0.068;2023-03-12T00:49:13;98846.44;;;4.95;100.00
69842;BME280;57138;51.326;-0.068;2023-03-12T00:51:39;98857.38;;;5.07;100.00
69842;BME280;57138;51.326;-0.068;2023-03-12T00:54:04;98865.97;;;5.09;100.00
69842;BME280;57138;51.326;-0.068;2023-03-12T00:56:30;98857.09;;;5.01;100.00
69842;BME280;57138;51.326;-0.068;2023-03-12T00:58:56;98865.22;;;5.15;100.00
69842;BME280;57138;51.326;-0.068;2023-03-12T01:01:21;98843.41;;;5.13;100.00
69842;BME280;57138;51.326;-0.068;2023-03-12T01:03:47;98801.91;;;4.83;100.00
69842;BME280;57138;51.326;-0.068;2023-03-12T01:06:13;98853.31;;;5.26;100.00
69842;BME280;57138;51.326;-0.068;2023-03-12T01:08:39;98824.56;;;5.08;100.00
69842;BME280;57138;51.326;-0.068;2023-03-12T01:11:04;98857.03;;;5.31;100.00
69842;BME280;57138;51.326;-0.068;2023-03-12T01:13:30;98804.97;;;5.02;100.00
69842;BME280;57138;51.326;-0.068;2023-03-12T01:15:55;98858.91;;;5.37;100.00
69842;BME280;57138;51.326;-0.068;2023-03-12T01:18:21;98838.84;;;5.28;100.00
69842;BME280;57138;51.326;-0.068;2023-03-12T01:20:46;98862.72;;;5.50;100.00
69842;BME280;57138;51.326;-0.068;2023-03-12T01:23:12;98867.03;;;5.51;100.00
69842;BME280;57138;51.326;-0.068;2023-03-12T01:25:37;98819.06;;;5.24;100.00
69842;BME280;57138;51.326;-0.068;2023-03-12T01:28:03;98852.31;;;5.48;100.00
69842;BME280;57138;51.326;-0.068;2023-03-12T01:30:29;98866.13;;;5.65;100.00
69842;BME280;57138;51.326;-0.068;2023-03-12T01:32:54;98825.78;;;5.48;100.00
69842;BME280;57138;51.326;-0.068;2023-03-12T01:35:20;98846.13;;;5.63;100.00
69842;BME280;57138;51.326;-0.068;2023-03-12T01:37:45;98843.53;;;5.69;100.00
69842;BME280;57138;51.326;-0.068;2023-03-12T01:40:15;98808.69;;;5.51;100.00
69842;BME280;57138;51.326;-0.068;2023-03-12T01:42:41;98828.00;;;5.66;100.00
69842;BME280;57138;51.326;-0.068;2023-03-12T01:48:11;98818.28;;;5.73;100.00
69842;BME280;57138;51.326;-0.068;2023-03-12T01:50:37;98802.94;;;5.69;100.00
69842;BME280;57138;51.326;-0.068;2023-03-12T01:53:03;98796.63;;;5.70;100.00
69842;BME280;57138;51.326;-0.068;2023-03-12T01:55:29;98823.09;;;5.91;100.00
69842;BME280;57138;51.326;-0.068;2023-03-12T01:57:55;98801.19;;;5.83;100.00
69842;BME280;57138;51.326;-0.068;2023-03-12T02:00:24;98820.22;;;5.86;100.00
69842;BME280;57138;51.326;-0.068;2023-03-12T02:02:51;98825.38;;;5.94;100.00
69842;BME280;57138;51.326;-0.068;2023-03-12T02:05:30;98804.91;;;5.88;100.00
69842;BME280;57138;51.326;-0.068;2023-03-12T02:07:57;98833.66;;;6.06;100.00
69842;BME280;57138;51.326;-0.068;2023-03-12T02:10:24;98837.75;;;6.09;100.00
69842;BME280;57138;51.326;-0.068;2023-03-12T02:12:53;98850.03;;;6.17;100.00
69842;BME280;57138;51.326;-0.068;2023-03-12T02:15:19;98823.06;;;6.06;100.00
69842;BME280;57138;51.326;-0.068;2023-03-12T02:17:44;98847.00;;;6.20;100.00
69842;BME280;57138;51.326;-0.068;2023-03-12T02:25:49;98866.06;;;6.30;100.00
69842;BME280;57138;51.326;-0.068;2023-03-12T02:28:17;98827.97;;;6.09;100.00
69842;BME280;57138;51.326;-0.068;2023-03-12T02:30:46;98845.66;;;6.30;100.00
69842;BME280;57138;51.326;-0.068;2023-03-12T02:33:13;98837.03;;;6.22;100.00
69842;BME280;57138;51.326;-0.068;2023-03-12T02:35:39;98844.69;;;6.38;100.00
69842;BME280;57138;51.326;-0.068;2023-03-12T02:41:00;98859.06;;;6.57;100.00
69842;BME280;57138;51.326;-0.068;2023-03-12T02:43:27;98844.56;;;6.53;100.00
69842;BME280;57138;51.326;-0.068;2023-03-12T02:45:54;98843.97;;;6.58;100.00
69842;BME280;57138;51.326;-0.068;2023-03-12T02:48:20;98853.84;;;6.71;100.00
69842;BME280;57138;51.326;-0.068;2023-03-12T02:50:48;98851.59;;;6.74;100.00
69842;BME280;57138;51.326;-0.068;2023-03-12T02:53:13;98828.28;;;6.70;100.00
69842;BME280;57138;51.326;-0.068;2023-03-12T02:55:39;98853.06;;;6.83;100.00
69842;BME280;57138;51.326;-0.068;2023-03-12T02:58:04;98846.75;;;6.84;100.00
69842;BME280;57138;51.326;-0.068;2023-03-12T03:00:29;98851.69;;;6.88;100.00
69842;BME280;57138;51.326;-0.068;2023-03-12T03:03:00;98836.53;;;6.81;100.00
69842;BME280;57138;51.326;-0.068;2023-03-12T03:05:26;98859.88;;;6.93;100.00
69842;BME280;57138;51.326;-0.068;2023-03-12T03:07:51;98855.34;;;6.87;100.00
69842;BME280;57138;51.326;-0.068;2023-03-12T03:10:17;98796.78;;;6.60;100.00
69842;BME280;57138;51.326;-0.068;2023-03-12T03:12:43;98854.34;;;6.88;100.00
69842;BME280;57138;51.326;-0.068;2023-03-12T03:15:09;98869.50;;;7.00;100.00
69842;BME280;57138;51.326;-0.068;2023-03-12T03:17:35;98833.28;;;6.86;100.00
69842;BME280;57138;51.326;-0.068;2023-03-12T03:20:01;98833.06;;;6.88;100.00
69842;BME280;57138;51.326;-0.068;2023-03-12T03:22:30;98850.09;;;7.00;100.00
69842;BME280;57138;51.326;-0.068;2023-03-12T03:24:55;98822.44;;;6.88;100.00
69842;BME280;57138;51.326;-0.068;2023-03-12T03:27:20;98821.81;;;6.86;100.00
69842;BME280;57138;51.326;-0.068;2023-03-12T03:29:46;98857.66;;;7.03;100.00
69842;BME280;57138;51.326;-0.068;2023-03-12T03:32:12;98838.59;;;6.93;100.00
69842;BME280;57138;51.326;-0.068;2023-03-12T03:34:37;98846.97;;;6.90;100.00
69842;BME280;57138;51.326;-0.068;2023-03-12T03:37:03;98859.88;;;6.93;100.00
69842;BME280;57138;51.326;-0.068;2023-03-12T03:39:29;98867.63;;;6.88;100.00
69842;BME280;57138;51.326;-0.068;2023-03-12T03:41:55;98862.47;;;6.79;100.00
69842;BME280;57138;51.326;-0.068;2023-03-12T03:44:20;98860.41;;;6.75;100.00
69842;BME280;57138;51.326;-0.068;2023-03-12T03:46:47;98882.69;;;6.80;100.00
69842;BME280;57138;51.326;-0.068;2023-03-12T03:49:13;98879.44;;;6.78;100.00
69842;BME280;57138;51.326;-0.068;2023-03-12T03:51:39;98890.44;;;6.75;100.00
69842;BME280;57138;51.326;-0.068;2023-03-12T03:54:07;98874.19;;;6.57;100.00
69842;BME280;57138;51.326;-0.068;2023-03-12T03:56:33;98906.34;;;6.69;100.00
69842;BME280;57138;51.326;-0.068;2023-03-12T03:58:59;98865.31;;;6.36;100.00
69842;BME280;57138;51.326;-0.068;2023-03-12T04:01:26;98866.06;;;6.30;100.00
69842;BME280;57138;51.326;-0.068;2023-03-12T04:03:51;98904.19;;;6.51;100.00
69842;BME280;57138;51.326;-0.068;2023-03-12T04:06:17;98905.59;;;6.46;100.00
69842;BME280;57138;51.326;-0.068;2023-03-12T04:08:42;98897.59;;;6.40;100.00
69842;BME280;57138;51.326;-0.068;2023-03-12T04:11:17;98913.09;;;6.36;100.00
69842;BME280;57138;51.326;-0.068;2023-03-12T04:13:43;98926.22;;;6.44;100.00
69842;BME280;57138;51.326;-0.068;2023-03-12T04:16:09;98935.19;;;6.43;100.00
69842;BME280;57138;51.326;-0.068;2023-03-12T04:18:35;98941.13;;;6.45;100.00
69842;BME280;57138;51.326;-0.068;2023-03-12T04:21:05;98930.25;;;6.40;100.00
69842;BME280;57138;51.326;-0.068;2023-03-12T04:23:31;98939.91;;;6.48;100.00
69842;BME280;57138;51.326;-0.068;2023-03-12T04:25:56;98915.09;;;6.34;100.00
69842;BME280;57138;51.326;-0.068;2023-03-12T04:28:22;98926.97;;;6.38;100.00
69842;BME280;57138;51.326;-0.068;2023-03-12T04:30:58;98946.69;;;6.51;100.00
69842;BME280;57138;51.326;-0.068;2023-03-12T04:33:35;98932.72;;;6.42;100.00
69842;BME280;57138;51.326;-0.068;2023-03-12T04:36:02;98939.72;;;6.50;100.00
69842;BME280;57138;51.326;-0.068;2023-03-12T04:38:28;98934.41;;;6.50;100.00
69842;BME280;57138;51.326;-0.068;2023-03-12T04:41:01;98932.78;;;6.48;100.00
69842;BME280;57138;51.326;-0.068;2023-03-12T04:43:28;98899.69;;;6.23;100.00
69842;BME280;57138;51.326;-0.068;2023-03-12T04:45:54;98935.56;;;6.40;100.00
69842;BME280;57138;51.326;-0.068;2023-03-12T04:48:20;98933.06;;;6.32;100.00
69842;BME280;57138;51.326;-0.068;2023-03-12T04:50:46;98926.91;;;6.25;100.00
69842;BME280;57138;51.326;-0.068;2023-03-12T04:53:11;98948.38;;;6.30;100.00
69842;BME280;57138;51.326;-0.068;2023-03-12T04:55:37;98972.09;;;6.38;100.00
69842;BME280;57138;51.326;-0.068;2023-03-12T04:58:02;98956.34;;;6.30;100.00
69842;BME280;57138;51.326;-0.068;2023-03-12T05:00:27;98951.41;;;6.27;100.00
69842;BME280;57138;51.326;-0.068;2023-03-12T05:02:53;98962.41;;;6.24;100.00
69842;BME280;57138;51.326;-0.068;2023-03-12T05:05:19;98975.72;;;6.30;100.00
69842;BME280;57138;51.326;-0.068;2023-03-12T05:07:44;98991.06;;;6.35;100.00
69842;BME280;57138;51.326;-0.068;2023-03-12T05:10:09;98985.16;;;6.33;100.00
69842;BME280;57138;51.326;-0.068;2023-03-12T05:12:35;98978.81;;;6.34;100.00
69842;BME280;57138;51.326;-0.068;2023-03-12T05:15:00;98981.28;;;6.36;100.00
69842;BME280;57138;51.326;-0.068;2023-03-12T05:17:26;98974.53;;;6.33;100.00
69842;BME280;57138;51.326;-0.068;2023-03-12T05:19:51;98973.91;;;6.31;100.00
69842;BME280;57138;51.326;-0.068;2023-03-12T05:22:17;98961.78;;;6.22;100.00
69842;BME280;57138;51.326;-0.068;2023-03-12T05:24:42;98953.50;;;6.10;100.00
69842;BME280;57138;51.326;-0.068;2023-03-12T05:27:08;98969.75;;;6.22;100.00
69842;BME280;57138;51.326;-0.068;2023-03-12T05:29:33;99003.69;;;6.26;100.00
69842;BME280;57138;51.326;-0.068;2023-03-12T05:32:03;98985.41;;;6.17;100.00
69842;BME280;57138;51.326;-0.068;2023-03-12T05:34:29;98980.94;;;6.17;100.00
69842;BME280;57138;51.326;-0.068;2023-03-12T05:36:56;98948.59;;;5.92;100.00
69842;BME280;57138;51.326;-0.068;2023-03-12T05:39:27;98985.09;;;6.05;100.00
69842;BME280;57138;51.326;-0.068;2023-03-12T05:41:54;99020.56;;;6.19;100.00
69842;BME280;57138;51.326;-0.068;2023-03-12T05:44:22;98981.78;;;6.03;100.00
69842;BME280;57138;51.326;-0.068;2023-03-12T05:46:48;98991.66;;;6.09;100.00
69842;BME280;57138;51.326;-0.068;2023-03-12T05:49:14;98994.97;;;6.11;100.00
69842;BME280;57138;51.326;-0.068;2023-03-12T05:51:39;98933.38;;;5.79;100.00
69842;BME280;57138;51.326;-0.068;2023-03-12T05:54:06;99005.25;;;6.21;100.00
69842;BME280;57138;51.326;-0.068;2023-03-12T05:56:31;99011.13;;;6.16;100.00
69842;BME280;57138;51.326;-0.068;2023-03-12T05:58:57;98997.44;;;6.13;100.00
69842;BME280;57138;51.326;-0.068;2023-03-12T06:01:25;98982.63;;;6.03;100.00
69842;BME280;57138;51.326;-0.068;2023-03-12T06:03:50;98980.97;;;6.02;100.00
69842;BME280;57138;51.326;-0.068;2023-03-12T06:06:16;98997.44;;;6.13;100.00
69842;BME280;57138;51.326;-0.068;2023-03-12T06:08:42;98990.03;;;6.08;100.00
69842;BME280;57138;51.326;-0.068;2023-03-12T06:11:08;98990.84;;;6.08;100.00
69842;BME280;57138;51.326;-0.068;2023-03-12T06:13:34;98969.75;;;6.00;100.00
69842;BME280;57138;51.326;-0.068;2023-03-12T06:16:03;98985.97;;;6.12;100.00
69842;BME280;57138;51.326;-0.068;2023-03-12T06:18:31;98993.69;;;6.07;100.00
69842;BME280;57138;51.326;-0.068;2023-03-12T06:21:08;98999.63;;;6.09;100.00
69842;BME280;57138;51.326;-0.068;2023-03-12T06:23:33;99006.75;;;6.08;100.00
69842;BME280;57138;51.326;-0.068;2023-03-12T06:25:59;98993.63;;;6.00;100.00
69842;BME280;57138;51.326;-0.068;2023-03-12T06:28:24;98988.31;;;6.00;100.00
69842;BME280;57138;51.326;-0.068;2023-03-12T06:30:52;99009.03;;;6.11;100.00
69842;BME280;57138;51.326;-0.068;2023-03-12T06:33:18;98961.63;;;5.87;100.00
69842;BME280;57138;51.326;-0.068;2023-03-12T06:35:43;99006.56;;;6.10;100.00
69842;BME280;57138;51.326;-0.068;2023-03-12T06:38:09;99014.53;;;6.10;100.00
69842;BME280;57138;51.326;-0.068;2023-03-12T06:40:35;98976.53;;;5.88;100.00
69842;BME280;57138;51.326;-0.068;2023-03-12T06:43:00;99019.03;;;6.09;100.00
69842;BME280;57138;51.326;-0.068;2023-03-12T06:45:26;98986.78;;;5.91;100.00
69842;BME280;57138;51.326;-0.068;2023-03-12T06:47:51;98987.41;;;5.93;100.00
69842;BME280;57138;51.326;-0.068;2023-03-12T06:50:16;99018.50;;;5.99;100.00
69842;BME280;57138;51.326;-0.068;2023-03-12T06:52:42;99022.81;;;6.00;100.00
69842;BME280;57138;51.326;-0.068;2023-03-12T06:55:07;99031.22;;;6.04;100.00
69842;BME280;57138;51.326;-0.068;2023-03-12T06:57:33;99032.59;;;6.00;100.00
69842;BME280;57138;51.326;-0.068;2023-03-12T06:59:58;99041.38;;;6.00;100.00
69842;BME280;57138;51.326;-0.068;2023-03-12T07:02:23;99068.69;;;6.16;100.00
69842;BME280;57138;51.326;-0.068;2023-03-12T07:04:49;99053.78;;;6.15;100.00
69842;BME280;57138;51.326;-0.068;2023-03-12T07:07:14;99049.75;;;6.19;100.00
69842;BME280;57138;51.326;-0.068;2023-03-12T07:09:41;99024.16;;;5.96;100.00
69842;BME280;57138;51.326;-0.068;2023-03-12T07:12:07;99049.28;;;6.15;100.00
69842;BME280;57138;51.326;-0.068;2023-03-12T07:14:33;99048.16;;;6.24;100.00
69842;BME280;57138;51.326;-0.068;2023-03-12T07:16:58;99036.34;;;6.27;100.00
69842;BME280;57138;51.326;-0.068;2023-03-12T07:19:26;99017.25;;;6.17;100.00
69842;BME280;57138;51.326;-0.068;2023-03-12T07:21:51;99048.25;;;6.31;100.00
69842;BME280;57138;51.326;-0.068;2023-03-12T07:24:17;99052.13;;;6.35;100.00
69842;BME280;57138;51.326;-0.068;2023-03-12T07:26:42;99017.63;;;6.14;100.00
69842;BME280;57138;51.326;-0.068;2023-03-12T07:29:07;99047.44;;;6.37;100.00
69842;BME280;57138;51.326;-0.068;2023-03-12T07:31:33;99043.03;;;6.44;100.00
69842;BME280;57138;51.326;-0.068;2023-03-12T07:33:59;99056.16;;;6.53;100.00
69842;BME280;57138;51.326;-0.068;2023-03-12T07:36:27;99019.66;;;6.33;100.00
69842;BME280;57138;51.326;-0.068;2023-03-12T07:38:54;99035.78;;;6.53;100.00
69842;BME280;57138;51.326;-0.068;2023-03-12T07:41:20;99052.06;;;6.72;100.00
69842;BME280;57138;51.326;-0.068;2023-03-12T07:43:45;99051.50;;;6.76;100.00
69842;BME280;57138;51.326;-0.068;2023-03-12T07:46:11;99059.69;;;6.81;100.00
69842;BME280;57138;51.326;-0.068;2023-03-12T07:48:36;99045.41;;;6.82;100.00
69842;BME280;57138;51.326;-0.068;2023-03-12T07:51:03;99083.06;;;6.93;100.00
69842;BME280;57138;51.326;-0.068;2023-03-12T07:53:29;99067.91;;;6.87;100.00
69842;BME280;57138;51.326;-0.068;2023-03-12T07:55:54;99078.69;;;7.07;100.00
69842;BME280;57138;51.326;-0.068;2023-03-12T07:58:19;99041.81;;;6.97;100.00
69842;BME280;57138;51.326;-0.068;2023-03-12T08:00:45;99039.00;;;7.05;100.00
69842;BME280;57138;51.326;-0.068;2023-03-12T08:03:10;99074.75;;;7.31;100.00
69842;BME280;57138;51.326;-0.068;2023-03-12T08:05:36;99083.19;;;7.41;100.00
69842;BME280;57138;51.326;-0.068;2023-03-12T08:08:01;99061.31;;;7.39;100.00
69842;BME280;57138;51.326;-0.068;2023-03-12T08:10:27;99082.25;;;7.55;100.00
69842;BME280;57138;51.326;-0.068;2023-03-12T08:12:52;99071.38;;;7.50;100.00
69842;BME280;57138;51.326;-0.068;2023-03-12T08:15:18;99043.69;;;7.38;100.00
69842;BME280;57138;51.326;-0.068;2023-03-12T08:17:44;99083.56;;;7.73;100.00
69842;BME280;57138;51.326;-0.068;2023-03-12T08:20:10;99099.13;;;7.76;100.00
69842;BME280;57138;51.326;-0.068;2023-03-12T08:22:36;99091.78;;;7.78;100.00
69842;BME280;57138;51.326;-0.068;2023-03-12T08:25:02;99083.97;;;7.70;100.00
69842;BME280;57138;51.326;-0.068;2023-03-12T08:27:28;99086.06;;;7.81;100.00
69842;BME280;57138;51.326;-0.068;2023-03-12T08:29:54;99068.00;;;7.70;100.00
69842;BME280;57138;51.326;-0.068;2023-03-12T08:32:20;99091.00;;;7.91;100.00
69842;BME280;57138;51.326;-0.068;2023-03-12T08:34:45;99104.56;;;8.03;100.00
69842;BME280;57138;51.326;-0.068;2023-03-12T08:37:11;99068.44;;;7.80;100.00
69842;BME280;57138;51.326;-0.068;2023-03-12T08:39:36;99107.44;;;8.08;100.00
69842;BME280;57138;51.326;-0.068;2023-03-12T08:42:02;99098.00;;;8.05;100.00
69842;BME280;57138;51.326;-0.068;2023-03-12T08:44:28;99104.59;;;8.09;99.82
69842;BME280;57138;51.326;-0.068;2023-03-12T08:46:53;99095.13;;;8.07;99.85
69842;BME280;57138;51.326;-0.068;2023-03-12T08:49:20;99109.50;;;8.13;100.00
69842;BME280;57138;51.326;-0.068;2023-03-12T08:51:45;99107.91;;;8.18;99.89
69842;BME280;57138;51.326;-0.068;2023-03-12T08:54:11;99115.31;;;8.36;100.00
69842;BME280;57138;51.326;-0.068;2023-03-12T08:56:36;99129.06;;;8.40;98.68
69842;BME280;57138;51.326;-0.068;2023-03-12T08:59:06;99117.75;;;8.31;98.65
69842;BME280;57138;51.326;-0.068;2023-03-12T09:01:31;99136.00;;;8.41;97.88
69842;BME280;57138;51.326;-0.068;2023-03-12T09:03:57;99102.19;;;8.35;97.64
69842;BME280;57138;51.326;-0.068;2023-03-12T09:06:22;99101.19;;;8.36;97.89
69842;BME280;57138;51.326;-0.068;2023-03-12T09:08:47;99117.44;;;8.54;97.64
69842;BME280;57138;51.326;-0.068;2023-03-12T09:11:16;99137.53;;;8.70;97.07
69842;BME280;57138;51.326;-0.068;2023-03-12T09:13:42;99139.19;;;8.71;97.39
69842;BME280;57138;51.326;-0.068;2023-03-12T09:16:08;99124.41;;;8.75;96.62
69842;BME280;57138;51.326;-0.068;2023-03-12T09:18:34;99094.28;;;8.61;96.26
69842;BME280;57138;51.326;-0.068;2023-03-12T09:20:59;99112.94;;;8.68;95.88
69842;BME280;57138;51.326;-0.068;2023-03-12T09:23:26;99126.88;;;8.77;96.01
69842;BME280;57138;51.326;-0.068;2023-03-12T09:25:53;99121.97;;;8.80;95.68
69842;BME280;57138;51.326;-0.068;2023-03-12T09:28:19;99141.88;;;8.91;94.83
69842;BME280;57138;51.326;-0.068;2023-03-12T09:30:45;99108.84;;;8.86;94.51
69842;BME280;57138;51.326;-0.068;2023-03-12T09:33:11;99125.88;;;9.05;94.42
69842;BME280;57138;51.326;-0.068;2023-03-12T09:35:37;99085.47;;;8.81;93.42
69842;BME280;57138;51.326;-0.068;2023-03-12T09:38:03;99128.94;;;9.08;94.21
69842;BME280;57138;51.326;-0.068;2023-03-12T09:40:30;99131.41;;;9.10;93.62
69842;BME280;57138;51.326;-0.068;2023-03-12T09:43:01;99130.56;;;9.16;93.47
69842;BME280;57138;51.326;-0.068;2023-03-12T09:45:31;99114.59;;;9.09;93.06
69842;BME280;57138;51.326;-0.068;2023-03-12T09:48:05;99104.53;;;9.05;92.88
69842;BME280;57138;51.326;-0.068;2023-03-12T09:50:32;99140.66;;;9.27;93.03
69842;BME280;57138;51.326;-0.068;2023-03-12T09:53:08;99141.84;;;9.31;93.13
69842;BME280;57138;51.326;-0.068;2023-03-12T09:55:38;99144.09;;;9.34;91.91
69842;BME280;57138;51.326;-0.068;2023-03-12T09:58:11;99147.41;;;9.37;92.07
69842;BME280;57138;51.326;-0.068;2023-03-12T10:00:38;99144.53;;;9.38;92.71
69842;BME280;57138;51.326;-0.068;2023-03-12T10:05:49;99133.25;;;9.43;91.76
69842;BME280;57138;51.326;-0.068;2023-03-12T10:14:14;99138.53;;;9.56;91.58
69842;BME280;57138;51.326;-0.068;2023-03-12T10:16:48;99131.34;;;9.57;91.17
69842;BME280;57138;51.326;-0.068;2023-03-12T10:27:32;99104.03;;;9.61;90.87
69842;BME280;57138;51.326;-0.068;2023-03-12T10:30:00;99108.31;;;9.69;91.16
69842;BME280;57138;51.326;-0.068;2023-03-12T10:32:41;99115.66;;;9.87;91.50
69842;BME280;57138;51.326;-0.068;2023-03-12T10:35:24;99095.13;;;9.94;91.17
69842;BME280;57138;51.326;-0.068;2023-03-12T10:37:58;99093.81;;;10.03;89.42
69842;BME280;57138;51.326;-0.068;2023-03-12T10:40:28;99104.50;;;10.10;90.01
69842;BME280;57138;51.326;-0.068;2023-03-12T10:42:54;99086.00;;;10.08;89.85
69842;BME280;57138;51.326;-0.068;2023-03-12T10:48:01;99094.94;;;10.28;89.21
69842;BME280;57138;51.326;-0.068;2023-03-12T10:50:33;99085.88;;;10.35;89.72
69842;BME280;57138;51.326;-0.068;2023-03-12T10:53:21;99105.53;;;10.48;90.38
69842;BME280;57138;51.326;-0.068;2023-03-12T11:01:06;99069.88;;;10.29;87.63
69842;BME280;57138;51.326;-0.068;2023-03-12T11:03:42;99063.69;;;10.28;87.23
69842;BME280;57138;51.326;-0.068;2023-03-12T11:06:09;99072.13;;;10.32;87.16
69842;BME280;57138;51.326;-0.068;2023-03-12T11:09:01;99073.13;;;10.37;87.23
69842;BME280;57138;51.326;-0.068;2023-03-12T11:11:32;99091.59;;;10.46;85.97
69842;BME280;57138;51.326;-0.068;2023-03-12T11:16:37;99083.38;;;10.40;86.92
69842;BME280;57138;51.326;-0.068;2023-03-12T11:19:04;99068.78;;;10.43;88.01
69842;BME280;57138;51.326;-0.068;2023-03-12T11:21:35;99082.44;;;10.60;87.57
69842;BME280;57138;51.326;-0.068;2023-03-12T11:24:16;99067.13;;;10.74;87.36
69842;BME280;57138;51.326;-0.068;2023-03-12T11:34:40;99017.06;;;10.56;86.49
69842;BME280;57138;51.326;-0.068;2023-03-12T11:49:16;99056.25;;;11.38;85.90
69842;BME280;57138;51.326;-0.068;2023-03-12T11:52:04;99054.53;;;11.43;85.16
69842;BME280;57138;51.326;-0.068;2023-03-12T11:55:10;99046.13;;;11.58;84.92
69842;BME280;57138;51.326;-0.068;2023-03-12T12:00:15;99048.28;;;11.49;82.35
69842;BME280;57138;51.326;-0.068;2023-03-12T12:05:45;99048.13;;;11.63;84.56
69842;BME280;57138;51.326;-0.068;2023-03-12T12:11:18;99038.13;;;11.88;83.19
69842;BME280;57138;51.326;-0.068;2023-03-12T12:13:55;99048.25;;;11.86;81.51
69842;BME280;57138;51.326;-0.068;2023-03-12T12:19:06;99047.28;;;11.99;82.86
69842;BME280;57138;51.326;-0.068;2023-03-12T12:21:51;99030.84;;;11.96;82.93
69842;BME280;57138;51.326;-0.068;2023-03-12T12:27:17;99016.13;;;11.86;79.85
69842;BME280;57138;51.326;-0.068;2023-03-12T12:33:08;99033.75;;;11.76;80.61
69842;BME280;57138;51.326;-0.068;2023-03-12T12:35:45;99031.44;;;11.79;80.47
69842;BME280;57138;51.326;-0.068;2023-03-12T12:38:25;99026.94;;;11.80;78.72
69842;BME280;57138;51.326;-0.068;2023-03-12T12:43:36;98989.03;;;11.76;81.90
69842;BME280;57138;51.326;-0.068;2023-03-12T12:46:11;98995.94;;;12.02;80.83
69842;BME280;57138;51.326;-0.068;2023-03-12T12:48:42;98998.31;;;12.11;79.86
69842;BME280;57138;51.326;-0.068;2023-03-12T12:51:08;99005.78;;;12.20;79.55
69842;BME280;57138;51.326;-0.068;2023-03-12T13:01:29;98990.00;;;12.00;76.91
69842;BME280;57138;51.326;-0.068;2023-03-12T13:04:01;98981.22;;;11.93;77.47
69842;BME280;57138;51.326;-0.068;2023-03-12T13:06:59;98988.75;;;12.03;78.82
69842;BME280;57138;51.326;-0.068;2023-03-12T13:09:45;98969.59;;;11.99;77.61
69842;BME280;57138;51.326;-0.068;2023-03-12T13:12:17;98975.69;;;12.18;78.36
69842;BME280;57138;51.326;-0.068;2023-03-12T13:14:45;98974.88;;;12.06;76.15
69842;BME280;57138;51.326;-0.068;2023-03-12T13:17:24;98976.72;;;12.05;76.86
69842;BME280;57138;51.326;-0.068;2023-03-12T13:20:15;98972.19;;;12.06;76.10
69842;BME280;57138;51.326;-0.068;2023-03-12T13:23:05;98974.16;;;11.99;77.22
69842;BME280;57138;51.326;-0.068;2023-03-12T13:28:56;98981.41;;;11.92;75.84
69842;BME280;57138;51.326;-0.068;2023-03-12T13:33:55;98969.47;;;11.94;77.28
69842;BME280;57138;51.326;-0.068;2023-03-12T13:36:26;98976.38;;;12.02;76.52
69842;BME280;57138;51.326;-0.068;2023-03-12T13:41:40;98966.88;;;11.87;73.06
69842;BME280;57138;51.326;-0.068;2023-03-12T13:53:03;98963.31;;;11.94;73.07
69842;BME280;57138;51.326;-0.068;2023-03-12T13:55:34;98945.41;;;11.76;74.42
69842;BME280;57138;51.326;-0.068;2023-03-12T14:00:53;98949.94;;;11.75;73.07
69842;BME280;57138;51.326;-0.068;2023-03-12T14:03:36;98941.75;;;11.70;73.54
69842;BME280;57138;51.326;-0.068;2023-03-12T14:12:15;98919.22;;;11.47;73.90
69842;BME280;57138;51.326;-0.068;2023-03-12T14:16:54;98942.66;;;11.64;74.86
69842;BME280;57138;51.326;-0.068;2023-03-12T14:19:29;98931.69;;;11.54;74.90
69842;BME280;57138;51.326;-0.068;2023-03-12T14:21:59;98942.06;;;11.62;75.23
69842;BME280;57138;51.326;-0.068;2023-03-12T14:24:36;98926.22;;;11.48;75.12
69842;BME280;57138;51.326;-0.068;2023-03-12T14:27:05;98914.69;;;11.29;75.26
69842;BME280;57138;51.326;-0.068;2023-03-12T14:29:41;98911.44;;;11.27;75.29
69842;BME280;57138;51.326;-0.068;2023-03-12T14:32:22;98928.31;;;11.28;75.99
69842;BME280;57138;51.326;-0.068;2023-03-12T14:35:17;98917.56;;;11.16;76.52
69842;BME280;57138;51.326;-0.068;2023-03-12T14:45:44;98933.97;;;10.83;77.89
69842;BME280;57138;51.326;-0.068;2023-03-12T14:48:09;98946.97;;;10.79;78.31
69842;BME280;57138;51.326;-0.068;2023-03-12T14:50:38;98895.09;;;10.43;78.65
69842;BME280;57138;51.326;-0.068;2023-03-12T14:53:19;98942.28;;;10.74;78.54
69842;BME280;57138;51.326;-0.068;2023-03-12T14:55:45;98939.91;;;10.66;78.52
69842;BME280;57138;51.326;-0.068;2023-03-12T14:58:17;98928.59;;;10.64;79.14